KALN/ALN METAR and TAF weather

Enter ICAO airport designator
Station Type Date Time Source
KALN METAR 2020/03/29 19:50 UTC NOAA

KALN 291950Z 24018G30KT 10SM SKC 18/02 A2996


Station Type Date Time Source
KALN Decoded METAR 2020/03/29 19:50 UTC NOAA

Alton/St. Louis, St. Louis Regional Airport, IL, United States (KALN) 38-54N 090-03W
Mar 29, 2020 - 03:50 PM EDT / 2020.03.29 1950 UTC
Wind: from the WSW (240 degrees) at 21 MPH (18 KT) gusting to 35 MPH (30 KT):0
Visibility: 10 mile(s):0
Sky conditions: clear
Temperature: 64 F (18 C)
Dew Point: 35 F (2 C)
Relative Humidity: 34%
Pressure (altimeter): 29.96 in. Hg (1014 hPa)
ob: KALN 291950Z 24018G30KT 10SM SKC 18/02 A2996
cycle: 20

Station Type Date Time Source
KALN TAF UTC NOAA

Error!

Example: see airport list